Current Weather

Qaisumah

Qaisumah, Saudi Arabia (OEPA)

Report from: Tuesday, August 16, 2022 9:00 AM +03
Current time: Tuesday, August 16, 2022 9:42 AM +03

Nearby weather
Weather history
Weather forecast

Temperature36.0°C (96.8°F)
Heat index33.9°C (93.1°F)
Dew point8.0°C (46.4°F)
Winds 16 kts (8.2 m/s, 18.4 mph) North (350°)
Visibility5.6 mi. (9 km)
Altimeter29.65 in.Hg (1004 mB)
Relative humidity18 %
Density altitude2,844 ft. (867 m)
Remarks No significant changes expected in the next two hours
Flight conditions Visual Meteorological Conditions
Raw dataOEPA 160600Z 35016KT 9000 NSC 36/08 Q1004 NOSIG
An error has occurred. This application may no longer respond until reloaded. Reload 🗙